Time;durP1;ratioP1;P1;durP2;ratioP2;P2;SDS_P1;SDS_P2;PMS_P1;PMS_P2;Temp;Humidity;BMP_temperature;BMP_pressure;BME280_temperature;BME280_humidity;BME280_pressure;Samples;Min_cycle;Max_cycle;Signal;HPM_P1;HPM_P2
2021/07/24 00:01:45;;;;;;;12.30;9.10;;;18.40;99.40;;;;;;5035462;28;20907;-66
2021/07/24 00:04:11;;;;;;;12.73;9.10;;;18.40;99.70;;;;;;5035635;28;20410;-67
2021/07/24 00:06:36;;;;;;;9.90;7.20;;;18.20;99.50;;;;;;5033896;28;20244;-67
2021/07/24 00:09:04;;;;;;;10.10;8.27;;;18.20;99.50;;;;;;5035309;28;20453;-67
2021/07/24 00:11:32;;;;;;;10.77;7.17;;;18.20;99.70;;;;;;5036000;28;20190;-67
2021/07/24 00:13:58;;;;;;;10.80;7.40;;;18.20;99.50;;;;;;5035404;28;20767;-67
2021/07/24 00:16:23;;;;;;;10.00;7.37;;;18.30;99.80;;;;;;5035194;28;20404;-67
2021/07/24 00:18:49;;;;;;;10.70;8.00;;;18.20;99.70;;;;;;5033693;28;20528;-67
2021/07/24 00:21:15;;;;;;;10.23;7.67;;;18.20;99.40;;;;;;5035334;28;20565;-67
2021/07/24 00:23:41;;;;;;;13.60;7.87;;;18.20;99.80;;;;;;5035283;28;20175;-67
2021/07/24 00:26:06;;;;;;;8.90;7.63;;;18.20;99.90;;;;;;5035225;28;20273;-67
2021/07/24 00:28:32;;;;;;;12.60;7.60;;;18.10;99.70;;;;;;5034815;28;20202;-67
2021/07/24 00:30:57;;;;;;;9.10;7.00;;;18.10;99.80;;;;;;5034766;28;20171;-67
2021/07/24 00:33:23;;;;;;;12.53;8.13;;;18.10;99.90;;;;;;5034831;28;20171;-67
2021/07/24 00:35:49;;;;;;;12.67;9.20;;;18.10;99.70;;;;;;5033539;28;20179;-67
2021/07/24 00:38:14;;;;;;;15.20;7.37;;;18.10;99.90;;;;;;5034759;28;20202;-67
2021/07/24 00:40:48;;;;;;;10.93;7.70;;;18.10;99.90;;;;;;5034741;28;20175;-67
2021/07/24 00:43:14;;;;;;;10.97;7.70;;;18.00;99.90;;;;;;5034748;28;20273;-67
2021/07/24 00:45:47;;;;;;;11.37;7.80;;;18.00;99.90;;;;;;5034869;28;20970;-67
2021/07/24 00:48:19;;;;;;;10.53;7.17;;;18.00;99.90;;;;;;5034486;28;22140;-67
2021/07/24 00:50:47;;;;;;;10.17;7.97;;;17.90;99.90;;;;;;5034390;28;20777;-67
2021/07/24 00:53:20;;;;;;;10.30;7.73;;;17.80;99.90;;;;;;5034672;28;20492;-67
2021/07/24 00:55:50;;;;;;;10.47;7.60;;;17.80;99.70;;;;;;5034861;28;20397;-67
2021/07/24 00:58:31;;;;;;;10.90;8.93;;;17.80;99.90;;;;;;5034543;28;20425;-67
2021/07/24 01:00:57;;;;;;;13.60;9.00;;;17.90;99.90;;;;;;5034386;28;20409;-67
2021/07/24 01:03:23;;;;;;;10.77;7.60;;;17.90;99.90;;;;;;5034460;28;20494;-67
2021/07/24 01:05:54;;;;;;;11.73;8.00;;;17.90;99.90;;;;;;5034265;28;20710;-67
2021/07/24 01:08:20;;;;;;;10.80;8.37;;;17.90;99.90;;;;;;5033563;28;20485;-67
2021/07/24 01:10:49;;;;;;;10.93;7.40;;;17.90;99.90;;;;;;5032808;28;20900;-67
2021/07/24 01:13:18;;;;;;;11.30;7.93;;;17.90;99.50;;;;;;5034217;28;20400;-67
2021/07/24 01:15:49;;;;;;;8.70;7.13;;;17.90;99.70;;;;;;5034302;28;20456;-67
2021/07/24 01:18:16;;;;;;;9.23;7.63;;;17.90;99.70;;;;;;5034246;28;20436;-67
2021/07/24 01:20:43;;;;;;;13.10;8.93;;;17.90;99.90;;;;;;5033822;28;20423;-67
2021/07/24 01:23:09;;;;;;;11.27;8.77;;;17.90;99.90;;;;;;5034166;28;20413;-67
2021/07/24 01:25:46;;;;;;;10.73;8.80;;;18.00;99.90;;;;;;5033982;28;20932;-67
2021/07/24 01:28:12;;;;;;;10.47;8.07;;;18.00;99.70;;;;;;5034281;28;20421;-67
2021/07/24 01:30:40;;;;;;;16.43;8.37;;;18.10;99.80;;;;;;5033836;28;20410;-67
2021/07/24 01:33:06;;;;;;;11.60;7.47;;;18.10;99.90;;;;;;5033931;28;20856;-67
2021/07/24 01:35:31;;;;;;;9.53;7.30;;;18.10;99.40;;;;;;5033685;28;20496;-67
2021/07/24 01:37:57;;;;;;;10.83;8.27;;;18.20;99.80;;;;;;5033775;28;20194;-67
2021/07/24 01:40:23;;;;;;;10.40;8.40;;;18.20;99.70;;;;;;5033666;28;20186;-67
2021/07/24 01:42:48;;;;;;;10.00;7.53;;;18.20;99.50;;;;;;5033736;28;20637;-67
2021/07/24 01:45:14;;;;;;;8.40;7.57;;;18.30;99.70;;;;;;5033801;28;20257;-67
2021/07/24 01:47:40;;;;;;;9.50;7.80;;;18.40;99.40;;;;;;5033514;28;20213;-67
2021/07/24 01:52:51;;;;;;;10.73;7.83;;;18.60;99.00;;;;;;5033606;28;20224;-67
2021/07/24 01:55:26;;;;;;;9.23;7.93;;;18.70;98.90;;;;;;5033374;28;20551;-66
2021/07/24 01:57:53;;;;;;;11.60;7.30;;;18.70;98.80;;;;;;5033351;28;20520;-67
2021/07/24 02:00:20;;;;;;;9.37;7.03;;;18.60;99.00;;;;;;5031947;28;20417;-67
2021/07/24 02:02:52;;;;;;;9.63;7.73;;;18.60;99.30;;;;;;5033598;28;20901;-67
2021/07/24 02:05:41;;;;;;;8.87;7.87;;;18.70;98.60;;;;;;5033661;28;20413;-67
2021/07/24 02:08:09;;;;;;;9.53;6.60;;;18.80;98.90;;;;;;5033240;28;20433;-67
2021/07/24 02:10:36;;;;;;;8.23;7.43;;;18.90;99.00;;;;;;5033127;28;20413;-67
2021/07/24 02:13:01;;;;;;;10.37;7.53;;;18.90;97.80;;;;;;5033588;28;20507;-67
2021/07/24 02:15:27;;;;;;;8.90;6.50;;;19.00;98.20;;;;;;5033363;28;20394;-67
2021/07/24 02:17:53;;;;;;;7.73;7.03;;;19.10;97.80;;;;;;5033067;28;20655;-67
2021/07/24 02:20:23;;;;;;;16.00;8.67;;;19.10;97.50;;;;;;5032858;28;20269;-67
2021/07/24 02:22:49;;;;;;;13.37;6.90;;;19.10;98.30;;;;;;5033414;28;20409;-67
2021/07/24 02:25:14;;;;;;;9.27;8.30;;;19.10;98.40;;;;;;5033083;28;20417;-67
2021/07/24 02:27:45;;;;;;;10.27;7.33;;;19.10;98.50;;;;;;5033252;28;20189;-67
2021/07/24 02:30:11;;;;;;;12.33;7.93;;;19.10;98.70;;;;;;5033014;28;20281;-67
2021/07/24 02:32:36;;;;;;;9.83;7.63;;;19.10;98.70;;;;;;5033440;28;20444;-67
2021/07/24 02:35:04;;;;;;;9.20;7.33;;;19.10;98.90;;;;;;5033284;28;20398;-67
2021/07/24 02:37:29;;;;;;;8.27;7.00;;;19.00;98.40;;;;;;5033117;28;20179;-67
2021/07/24 02:39:55;;;;;;;11.60;7.17;;;19.00;98.60;;;;;;5032934;28;20402;-67
2021/07/24 02:42:20;;;;;;;10.03;8.17;;;19.00;98.20;;;;;;5033074;28;20171;-67
2021/07/24 02:44:46;;;;;;;8.63;7.60;;;19.00;98.20;;;;;;5033080;28;20209;-67
2021/07/24 02:47:12;;;;;;;9.30;7.60;;;19.00;98.10;;;;;;5033003;28;20287;-67
2021/07/24 02:49:38;;;;;;;11.23;7.80;;;18.90;98.30;;;;;;5032741;28;20534;-67
2021/07/24 02:52:05;;;;;;;8.50;6.70;;;18.90;98.20;;;;;;5033159;28;20167;-67
2021/07/24 02:54:30;;;;;;;8.07;6.30;;;18.90;98.40;;;;;;5033367;28;20872;-67
2021/07/24 02:56:56;;;;;;;10.90;7.47;;;18.80;98.90;;;;;;5032893;28;20460;-67
2021/07/24 02:59:22;;;;;;;10.90;7.90;;;18.80;98.80;;;;;;5033079;28;20249;-67
2021/07/24 03:01:48;;;;;;;11.83;8.37;;;18.80;98.60;;;;;;5032982;28;20413;-67
2021/07/24 03:04:13;;;;;;;10.63;7.50;;;18.90;98.80;;;;;;5033138;28;20687;-67
2021/07/24 03:06:39;;;;;;;15.60;9.47;;;18.90;98.70;;;;;;5032674;28;20201;-67
2021/07/24 03:09:06;;;;;;;10.40;8.33;;;18.90;98.80;;;;;;5032567;28;20195;-67
2021/07/24 03:11:33;;;;;;;9.63;6.73;;;18.80;99.00;;;;;;5033052;28;20254;-67
2021/07/24 03:14:00;;;;;;;9.53;7.40;;;18.80;98.90;;;;;;5033021;28;20884;-66
2021/07/24 03:16:25;;;;;;;9.00;7.23;;;18.80;99.10;;;;;;5032972;28;20479;-67
2021/07/24 03:18:51;;;;;;;12.77;7.63;;;18.80;99.20;;;;;;5032491;28;20433;-67
2021/07/24 03:21:18;;;;;;;9.80;8.33;;;18.80;99.20;;;;;;5032646;28;20171;-67
2021/07/24 03:23:45;;;;;;;9.07;7.53;;;18.80;99.40;;;;;;5033131;28;20766;-67
2021/07/24 03:26:10;;;;;;;12.17;9.67;;;18.80;99.30;;;;;;5032660;28;20405;-67
2021/07/24 03:28:36;;;;;;;10.20;8.03;;;18.80;99.30;;;;;;5032485;28;20449;-67
2021/07/24 03:31:02;;;;;;;7.80;7.00;;;18.80;99.40;;;;;;5034908;28;20212;-67
2021/07/24 03:33:28;;;;;;;8.67;7.70;;;18.80;99.50;;;;;;5036172;28;20224;-67
2021/07/24 03:35:53;;;;;;;8.93;7.40;;;18.90;99.20;;;;;;5036231;28;20902;-67
2021/07/24 03:38:22;;;;;;;11.70;7.50;;;18.90;99.40;;;;;;5035955;28;20220;-67
2021/07/24 03:40:48;;;;;;;10.83;8.47;;;18.90;99.60;;;;;;5035871;28;20175;-67
2021/07/24 03:43:14;;;;;;;13.40;9.07;;;18.70;99.60;;;;;;5036008;28;20402;-67
2021/07/24 03:45:40;;;;;;;9.63;8.47;;;18.70;99.90;;;;;;5036143;28;20467;-67
2021/07/24 03:48:06;;;;;;;11.13;7.00;;;18.80;99.80;;;;;;5035705;28;20431;-67
2021/07/24 03:50:32;;;;;;;11.10;8.77;;;18.90;99.80;;;;;;5035614;28;20487;-67
2021/07/24 03:52:58;;;;;;;10.60;9.23;;;18.90;99.90;;;;;;5035981;28;20433;-67
2021/07/24 03:55:24;;;;;;;11.17;8.50;;;18.90;99.90;;;;;;5035964;28;20405;-67
2021/07/24 03:57:52;;;;;;;9.53;8.43;;;18.90;99.90;;;;;;5035614;28;20197;-67
2021/07/24 04:00:17;;;;;;;9.03;8.10;;;18.90;99.90;;;;;;5035612;28;20402;-67
2021/07/24 04:02:44;;;;;;;10.57;8.30;;;18.80;99.90;;;;;;5035625;28;20402;-67
2021/07/24 04:05:10;;;;;;;11.23;8.83;;;18.80;99.90;;;;;;5035752;28;20254;-67
2021/07/24 04:07:38;;;;;;;9.33;7.67;;;18.70;99.90;;;;;;5035351;28;20453;-67
2021/07/24 04:10:08;;;;;;;14.73;9.07;;;18.80;99.90;;;;;;5035176;28;20449;-67
2021/07/24 04:12:35;;;;;;;10.40;9.30;;;18.90;99.90;;;;;;5035800;28;20493;-66
2021/07/24 04:15:02;;;;;;;18.93;8.50;;;18.90;99.90;;;;;;5035278;28;21000;-67
2021/07/24 04:17:28;;;;;;;15.70;12.00;;;18.90;99.90;;;;;;5035291;28;20426;-67
2021/07/24 04:19:55;;;;;;;13.97;8.53;;;18.90;99.90;;;;;;5035075;28;20432;-67
2021/07/24 04:22:21;;;;;;;14.10;8.83;;;18.80;99.90;;;;;;5035309;28;20194;-67
2021/07/24 04:24:47;;;;;;;11.80;8.07;;;18.70;99.90;;;;;;5035364;28;20414;-67
2021/07/24 04:27:14;;;;;;;12.90;9.63;;;18.70;99.90;;;;;;5035119;28;20452;-67
2021/07/24 04:29:39;;;;;;;13.53;9.23;;;18.70;99.90;;;;;;5034862;28;20187;-67
2021/07/24 04:32:05;;;;;;;11.40;9.20;;;18.50;99.90;;;;;;5035257;28;20409;-67
2021/07/24 04:34:31;;;;;;;10.47;9.00;;;18.40;99.90;;;;;;5034994;28;20169;-67
2021/07/24 04:36:58;;;;;;;13.07;10.53;;;18.60;99.90;;;;;;5035117;28;20429;-67
2021/07/24 04:39:23;;;;;;;13.33;9.53;;;18.80;99.90;;;;;;5034981;28;20611;-67
2021/07/24 04:41:49;;;;;;;14.70;9.53;;;18.70;99.90;;;;;;5034131;28;20489;-67
2021/07/24 04:44:15;;;;;;;17.53;8.57;;;18.50;99.90;;;;;;5035069;28;20578;-67
2021/07/24 04:46:41;;;;;;;11.03;9.93;;;18.60;99.90;;;;;;5034920;28;20640;-67
2021/07/24 04:49:07;;;;;;;12.17;8.37;;;18.70;99.90;;;;;;5034484;28;20746;-67
2021/07/24 04:51:33;;;;;;;14.70;9.27;;;18.60;99.90;;;;;;5033467;28;20463;-67
2021/07/24 04:53:59;;;;;;;10.83;8.63;;;18.60;99.90;;;;;;5034757;28;20537;-67
2021/07/24 04:56:26;;;;;;;10.97;9.07;;;18.70;99.90;;;;;;5034752;28;20488;-67
2021/07/24 04:58:52;;;;;;;13.50;9.60;;;18.80;99.90;;;;;;5034429;28;20193;-67
2021/07/24 05:01:21;;;;;;;13.20;10.50;;;18.80;99.90;;;;;;5034662;28;20399;-67
2021/07/24 05:03:47;;;;;;;10.80;8.97;;;19.00;99.90;;;;;;5034456;28;20871;-67
2021/07/24 05:06:13;;;;;;;12.10;9.10;;;19.10;99.90;;;;;;5034332;28;20425;-67
2021/07/24 05:08:39;;;;;;;16.03;9.87;;;19.10;99.90;;;;;;5034245;28;20975;-67
2021/07/24 05:11:04;;;;;;;11.57;9.83;;;19.10;99.90;;;;;;5034274;28;20177;-67
2021/07/24 05:13:31;;;;;;;14.40;9.60;;;19.10;99.90;;;;;;5034399;28;20431;-67
2021/07/24 05:15:57;;;;;;;11.57;8.13;;;19.20;99.90;;;;;;5034327;28;20399;-67
2021/07/24 05:18:23;;;;;;;11.67;9.57;;;19.10;99.90;;;;;;5034014;28;20237;-67
2021/07/24 05:20:49;;;;;;;11.20;8.87;;;19.10;99.90;;;;;;5034020;28;20434;-67
2021/07/24 05:23:15;;;;;;;11.30;8.83;;;19.10;99.90;;;;;;5034179;28;20815;-67
2021/07/24 05:25:43;;;;;;;14.77;9.37;;;19.10;99.90;;;;;;5034189;28;20812;-67
2021/07/24 05:28:09;;;;;;;11.97;8.27;;;19.10;99.90;;;;;;5033809;28;20248;-67
2021/07/24 05:30:35;;;;;;;11.03;8.47;;;19.10;99.90;;;;;;5033748;28;20414;-67
2021/07/24 05:33:01;;;;;;;11.13;9.73;;;19.20;99.90;;;;;;5033945;28;20456;-67
2021/07/24 05:35:27;;;;;;;15.47;10.13;;;19.20;99.90;;;;;;5033943;28;20180;-67
2021/07/24 05:37:53;;;;;;;11.80;8.93;;;19.30;99.90;;;;;;5033808;28;20191;-67
2021/07/24 05:40:18;;;;;;;11.80;10.00;;;19.40;99.90;;;;;;5033600;28;20414;-67
2021/07/24 05:42:44;;;;;;;17.10;10.70;;;19.40;99.90;;;;;;5032706;28;20186;-67
2021/07/24 05:45:10;;;;;;;15.33;10.70;;;19.40;99.90;;;;;;5033651;28;20175;-67
2021/07/24 05:47:36;;;;;;;12.40;10.07;;;19.40;99.90;;;;;;5033607;28;20204;-67
2021/07/24 05:50:03;;;;;;;16.63;11.23;;;19.50;99.90;;;;;;5033369;28;20459;-67
2021/07/24 05:52:29;;;;;;;13.60;9.50;;;19.50;99.90;;;;;;5033522;28;20576;-67
2021/07/24 05:54:54;;;;;;;12.33;8.83;;;19.60;99.90;;;;;;5033701;28;20407;-67
2021/07/24 05:57:20;;;;;;;13.40;10.37;;;19.60;99.90;;;;;;5033575;28;20241;-67
2021/07/24 05:59:46;;;;;;;13.30;8.57;;;19.40;99.90;;;;;;5033301;28;20256;-67
2021/07/24 06:02:13;;;;;;;10.90;8.50;;;19.50;99.90;;;;;;5033486;28;20339;-67
2021/07/24 06:04:45;;;;;;;10.77;9.37;;;19.70;99.90;;;;;;5032270;28;20466;-67
2021/07/24 06:07:11;;;;;;;11.90;9.27;;;19.70;99.90;;;;;;5033358;28;20482;-67
2021/07/24 06:09:37;;;;;;;8.80;7.67;;;19.80;99.90;;;;;;5033287;28;20453;-67
2021/07/24 06:12:04;;;;;;;8.00;7.20;;;19.90;99.90;;;;;;5033578;28;20812;-67
2021/07/24 06:14:31;;;;;;;6.93;6.23;;;20.00;99.30;;;;;;5033781;28;20407;-67
2021/07/24 06:16:58;;;;;;;8.80;6.93;;;20.00;99.90;;;;;;5033279;28;20829;-67
2021/07/24 06:19:24;;;;;;;7.93;6.60;;;20.00;98.70;;;;;;5033308;28;20887;-67
2021/07/24 06:21:49;;;;;;;10.70;7.77;;;20.20;99.80;;;;;;5033437;28;20493;-67
2021/07/24 06:24:15;;;;;;;8.03;6.67;;;20.20;99.00;;;;;;5033833;28;20179;-67
2021/07/24 06:26:41;;;;;;;7.07;5.83;;;20.10;99.90;;;;;;5033357;28;20186;-67
2021/07/24 06:29:07;;;;;;;7.53;6.60;;;20.10;99.50;;;;;;5032928;28;20278;-67
2021/07/24 06:31:33;;;;;;;7.87;5.47;;;20.20;99.90;;;;;;5033216;28;20255;-67
2021/07/24 06:34:02;;;;;;;6.23;5.13;;;20.10;99.90;;;;;;5033148;28;20440;-67
2021/07/24 06:36:28;;;;;;;7.97;5.77;;;20.00;99.90;;;;;;5033344;28;20180;-67
2021/07/24 06:38:53;;;;;;;6.60;5.27;;;19.90;99.90;;;;;;5033144;28;20428;-67
2021/07/24 06:41:19;;;;;;;7.60;5.20;;;19.80;99.90;;;;;;5033248;28;20422;-67
2021/07/24 06:43:45;;;;;;;10.20;5.80;;;19.70;99.90;;;;;;5032946;28;20552;-67
2021/07/24 06:46:12;;;;;;;9.03;6.20;;;19.60;99.90;;;;;;5033127;28;20489;-67
2021/07/24 06:48:38;;;;;;;6.60;5.90;;;19.40;99.90;;;;;;5032908;28;20662;-67
2021/07/24 06:51:07;;;;;;;6.07;5.40;;;19.40;99.90;;;;;;5032817;28;20415;-67
2021/07/24 06:53:34;;;;;;;6.60;5.93;;;19.10;99.90;;;;;;5033157;28;20168;-67
2021/07/24 06:56:00;;;;;;;6.50;5.00;;;18.90;99.90;;;;;;5033031;28;20396;-67
2021/07/24 06:58:25;;;;;;;8.70;5.27;;;18.90;99.90;;;;;;5032885;28;20435;-67
2021/07/24 07:00:51;;;;;;;6.20;5.60;;;18.90;99.90;;;;;;5032783;28;20402;-67
2021/07/24 07:03:17;;;;;;;7.73;7.00;;;18.90;99.90;;;;;;5031756;28;20175;-67
2021/07/24 07:05:42;;;;;;;7.07;6.10;;;19.00;99.90;;;;;;5035073;28;20719;-67
2021/07/24 07:08:08;;;;;;;9.07;6.43;;;19.00;99.90;;;;;;5036493;28;20186;-67
2021/07/24 07:10:34;;;;;;;9.80;5.40;;;18.90;99.90;;;;;;5036379;28;20253;-67
2021/07/24 07:12:59;;;;;;;7.07;6.33;;;19.00;99.90;;;;;;5036595;28;20171;-67
2021/07/24 07:15:27;;;;;;;7.20;6.27;;;19.00;99.90;;;;;;5036564;28;20217;-67
2021/07/24 07:17:53;;;;;;;7.93;6.30;;;18.90;99.90;;;;;;5036376;28;20182;-67
2021/07/24 07:20:19;;;;;;;13.00;6.77;;;18.90;99.90;;;;;;5036275;28;20919;-67
2021/07/24 07:22:44;;;;;;;7.93;7.07;;;18.80;99.90;;;;;;5035301;28;20178;-67
2021/07/24 07:25:11;;;;;;;9.93;7.30;;;18.90;99.90;;;;;;5036470;28;20173;-67
2021/07/24 07:27:44;;;;;;;10.43;6.33;;;18.90;99.90;;;;;;5036418;28;20191;-67
2021/07/24 07:30:13;;;;;;;8.13;6.47;;;18.80;99.90;;;;;;5036101;28;20475;-67
2021/07/24 07:32:39;;;;;;;7.53;6.80;;;18.90;99.90;;;;;;5036291;28;20493;-67
2021/07/24 07:35:05;;;;;;;7.23;6.53;;;18.90;99.90;;;;;;5036490;28;20825;-67
2021/07/24 07:37:31;;;;;;;8.03;6.80;;;18.90;99.90;;;;;;5035907;28;20425;-67
2021/07/24 07:39:57;;;;;;;7.17;5.70;;;18.80;99.90;;;;;;5035932;28;20920;-67
2021/07/24 07:42:22;;;;;;;8.77;7.13;;;18.70;99.90;;;;;;5036032;28;20405;-67
2021/07/24 07:44:48;;;;;;;7.80;7.10;;;18.60;99.90;;;;;;5036078;28;20171;-67
2021/07/24 07:47:13;;;;;;;9.20;6.57;;;18.80;99.90;;;;;;5036007;28;20195;-67
2021/07/24 07:49:39;;;;;;;7.90;7.17;;;18.90;99.90;;;;;;5035938;28;20232;-66
2021/07/24 07:52:06;;;;;;;8.50;6.63;;;19.10;99.90;;;;;;5035904;28;20169;-67
2021/07/24 07:54:33;;;;;;;8.60;6.47;;;19.30;99.90;;;;;;5035922;28;20536;-67
2021/07/24 07:56:59;;;;;;;7.57;6.83;;;19.40;99.90;;;;;;5035726;28;20460;-67
2021/07/24 07:59:25;;;;;;;13.20;7.27;;;19.60;99.90;;;;;;5035709;28;20411;-67
2021/07/24 08:01:51;;;;;;;7.50;6.80;;;19.80;99.90;;;;;;5035883;28;20544;-67
2021/07/24 08:04:17;;;;;;;12.47;8.20;;;19.90;99.90;;;;;;5035777;28;20427;-67
2021/07/24 08:06:42;;;;;;;9.43;6.40;;;20.00;99.90;;;;;;5035413;28;20560;-67
2021/07/24 08:09:08;;;;;;;5.80;5.30;;;20.00;99.90;;;;;;5035232;28;20198;-67
2021/07/24 08:11:34;;;;;;;8.00;5.20;;;20.40;99.90;;;;;;5035531;28;20170;-67
2021/07/24 08:13:59;;;;;;;12.90;5.97;;;21.00;99.90;;;;;;5035481;28;20163;-67
2021/07/24 08:16:25;;;;;;;6.13;5.50;;;21.90;99.90;;;;;;5034248;28;20193;-68
2021/07/24 08:18:50;;;;;;;5.57;5.00;;;23.10;98.10;;;;;;5035136;28;20189;-68
2021/07/24 08:21:16;;;;;;;5.83;3.90;;;24.20;96.80;;;;;;5035408;28;20313;-67
2021/07/24 08:23:42;;;;;;;8.30;5.67;;;24.90;95.20;;;;;;5035097;28;20526;-67
2021/07/24 08:26:07;;;;;;;7.37;4.10;;;25.30;93.90;;;;;;5035144;28;20171;-68
2021/07/24 08:28:33;;;;;;;5.50;5.00;;;25.40;92.80;;;;;;5034987;28;20742;-67
2021/07/24 08:31:00;;;;;;;5.73;5.23;;;25.60;93.70;;;;;;5034917;28;20174;-67
2021/07/24 08:33:26;;;;;;;6.63;5.50;;;26.00;95.00;;;;;;5035067;28;20335;-67
2021/07/24 08:35:53;;;;;;;5.67;5.17;;;26.30;91.40;;;;;;5035093;28;20402;-67
2021/07/24 08:38:19;;;;;;;7.07;5.40;;;26.10;92.60;;;;;;5034817;28;20392;-67
2021/07/24 08:40:46;;;;;;;7.60;4.67;;;25.70;94.70;;;;;;5034745;28;20402;-67
2021/07/24 08:43:12;;;;;;;7.60;5.53;;;25.60;94.20;;;;;;5034891;28;20603;-67
2021/07/24 08:45:38;;;;;;;7.60;5.30;;;25.80;94.30;;;;;;5034851;28;20938;-67
2021/07/24 08:48:05;;;;;;;5.70;5.20;;;25.90;93.10;;;;;;5034677;28;20421;-67
2021/07/24 08:50:32;;;;;;;6.87;6.10;;;26.00;92.40;;;;;;5034347;28;20195;-67
2021/07/24 08:53:03;;;;;;;5.13;4.63;;;26.00;93.20;;;;;;5034609;28;20790;-67
2021/07/24 08:55:29;;;;;;;6.50;4.97;;;25.70;92.20;;;;;;5034686;28;20410;-67
2021/07/24 08:57:59;;;;;;;5.20;4.70;;;25.10;92.30;;;;;;5034532;28;20555;-67
2021/07/24 09:00:26;;;;;;;6.07;5.23;;;24.60;92.90;;;;;;5034497;28;20195;-67
2021/07/24 09:02:54;;;;;;;7.47;5.20;;;24.40;94.00;;;;;;5034445;28;20387;-67
2021/07/24 09:05:20;;;;;;;5.50;5.00;;;24.10;93.30;;;;;;5034518;28;20406;-67
2021/07/24 09:07:50;;;;;;;8.67;5.80;;;23.90;93.90;;;;;;5034328;28;20408;-67
2021/07/24 09:10:18;;;;;;;7.23;6.53;;;23.70;95.80;;;;;;5034210;28;20468;-67
2021/07/24 09:12:45;;;;;;;9.87;6.43;;;23.40;97.90;;;;;;5034332;28;20388;-67
2021/07/24 09:15:14;;;;;;;8.37;5.93;;;22.90;98.80;;;;;;5034339;28;20490;-67
2021/07/24 09:17:39;;;;;;;7.37;6.67;;;22.50;99.90;;;;;;5034235;28;20431;-67
2021/07/24 09:20:06;;;;;;;8.43;6.13;;;22.20;99.90;;;;;;5034142;28;20972;-67
2021/07/24 09:22:33;;;;;;;9.00;7.23;;;22.10;99.90;;;;;;5034234;28;20176;-67
2021/07/24 09:25:12;;;;;;;8.00;7.20;;;21.90;99.90;;;;;;5033145;28;20415;-67
2021/07/24 09:27:43;;;;;;;7.53;6.30;;;21.70;99.90;;;;;;5033697;28;20422;-67
2021/07/24 09:30:27;;;;;;;10.30;7.20;;;21.60;99.90;;;;;;5033742;28;20447;-67
2021/07/24 09:33:12;;;;;;;9.17;8.20;;;21.50;99.90;;;;;;5034194;28;20409;-67
2021/07/24 09:35:54;;;;;;;10.67;7.30;;;21.40;99.90;;;;;;5034029;28;20390;-67
2021/07/24 09:38:29;;;;;;;9.47;7.73;;;21.30;99.90;;;;;;5033779;28;20426;-67
2021/07/24 09:41:01;;;;;;;11.30;9.63;;;21.10;99.90;;;;;;5033687;28;20396;-67
2021/07/24 09:43:28;;;;;;;11.83;8.00;;;21.00;99.90;;;;;;5033765;28;20417;-67
2021/07/24 09:46:18;;;;;;;11.43;8.00;;;20.60;99.90;;;;;;5033847;28;20413;-67
2021/07/24 09:48:47;;;;;;;9.03;8.10;;;20.60;99.90;;;;;;5033517;28;20536;-67
2021/07/24 09:51:14;;;;;;;11.07;8.97;;;20.70;99.90;;;;;;5033588;28;20918;-67
2021/07/24 09:53:45;;;;;;;10.70;8.83;;;20.90;99.90;;;;;;5033618;28;20409;-67
2021/07/24 09:56:17;;;;;;;10.77;8.83;;;21.00;99.90;;;;;;5033790;28;20398;-67
2021/07/24 09:58:46;;;;;;;9.60;8.10;;;21.30;99.90;;;;;;5033531;28;20940;-67
2021/07/24 10:01:18;;;;;;;8.13;7.10;;;22.00;99.90;;;;;;5033532;28;20412;-67
2021/07/24 10:03:48;;;;;;;8.17;7.33;;;22.50;99.90;;;;;;5034150;28;20414;-67
2021/07/24 10:06:15;;;;;;;10.73;7.53;;;22.90;99.00;;;;;;5033298;28;20436;-67
2021/07/24 10:08:48;;;;;;;11.13;8.23;;;23.20;99.60;;;;;;5033315;28;20552;-68
2021/07/24 10:11:14;;;;;;;7.97;6.60;;;23.60;99.20;;;;;;5033696;28;20404;-67
2021/07/24 10:13:42;;;;;;;9.60;7.70;;;23.70;99.10;;;;;;5033539;28;20405;-67
2021/07/24 10:16:08;;;;;;;8.90;7.47;;;24.00;96.50;;;;;;5033386;28;20210;-67
2021/07/24 10:18:34;;;;;;;10.87;8.17;;;24.50;95.80;;;;;;5033155;28;20956;-67
2021/07/24 10:21:00;;;;;;;8.43;6.43;;;25.30;95.80;;;;;;5033184;28;20170;-67
2021/07/24 10:23:25;;;;;;;8.60;7.17;;;25.80;93.70;;;;;;5033383;28;20401;-67
2021/07/24 10:26:16;;;;;;;7.57;6.77;;;26.00;92.60;;;;;;5033581;28;20167;-67
2021/07/24 10:28:59;;;;;;;9.93;7.23;;;26.10;92.20;;;;;;5033561;28;20677;-67
2021/07/24 10:31:44;;;;;;;10.60;6.60;;;25.90;94.20;;;;;;5033502;28;20390;-67
2021/07/24 10:34:12;;;;;;;8.97;7.70;;;25.80;94.40;;;;;;5033463;28;20460;-68
2021/07/24 10:36:42;;;;;;;7.30;6.57;;;25.70;92.30;;;;;;5033314;28;20397;-67
2021/07/24 10:39:15;;;;;;;10.80;7.30;;;25.60;92.70;;;;;;5033074;28;20398;-67
2021/07/24 10:41:42;;;;;;;8.73;7.70;;;25.30;92.90;;;;;;5037303;28;20489;-67
2021/07/24 10:44:11;;;;;;;11.07;7.93;;;25.10;92.40;;;;;;5037013;28;20412;-67
2021/07/24 10:46:45;;;;;;;9.47;6.67;;;25.20;95.20;;;;;;5037090;28;20388;-68
2021/07/24 10:49:22;;;;;;;7.30;6.30;;;25.20;93.60;;;;;;5036674;28;20918;-67
2021/07/24 10:51:58;;;;;;;8.70;6.93;;;25.10;91.80;;;;;;5036880;28;20682;-66
2021/07/24 10:54:27;;;;;;;8.43;7.63;;;25.30;92.70;;;;;;5037026;28;20769;-67
2021/07/24 10:56:53;;;;;;;9.67;6.20;;;25.50;94.00;;;;;;5036867;28;20516;-67
2021/07/24 10:59:26;;;;;;;9.47;6.33;;;25.80;91.50;;;;;;5035601;28;20445;-67
2021/07/24 11:01:56;;;;;;;7.07;6.37;;;26.10;90.30;;;;;;5036816;28;20225;-67
2021/07/24 11:04:38;;;;;;;6.17;5.57;;;26.10;93.40;;;;;;5036688;28;20467;-67
2021/07/24 11:07:12;;;;;;;7.90;6.33;;;26.00;90.90;;;;;;5036473;28;20460;-67
2021/07/24 11:09:39;;;;;;;6.67;5.97;;;26.00;91.90;;;;;;5036224;28;20455;-67
2021/07/24 11:12:06;;;;;;;8.30;6.70;;;26.20;92.70;;;;;;5036622;28;20763;-67
2021/07/24 11:14:38;;;;;;;7.17;6.47;;;26.20;90.60;;;;;;5036397;28;20443;-67
2021/07/24 11:17:11;;;;;;;8.20;6.17;;;25.90;93.30;;;;;;5036295;28;20429;-67
2021/07/24 11:19:38;;;;;;;6.20;5.50;;;25.80;95.40;;;;;;5036209;28;20379;-67
2021/07/24 11:22:08;;;;;;;6.33;5.80;;;25.50;95.10;;;;;;5036386;28;20485;-67
2021/07/24 11:24:34;;;;;;;7.00;5.67;;;25.10;93.90;;;;;;5036374;28;20376;-67
2021/07/24 11:27:00;;;;;;;9.10;6.20;;;24.70;91.80;;;;;;5036502;28;20443;-67
2021/07/24 11:29:25;;;;;;;8.33;5.07;;;24.70;91.90;;;;;;5035894;28;20458;-67
2021/07/24 11:31:52;;;;;;;6.30;5.70;;;25.10;91.20;;;;;;5036202;28;20596;-67
2021/07/24 11:34:21;;;;;;;6.30;5.70;;;25.40;90.60;;;;;;5036217;28;20533;-67
2021/07/24 11:36:51;;;;;;;8.90;5.97;;;25.70;92.50;;;;;;5036189;28;20477;-68
2021/07/24 11:39:21;;;;;;;7.03;5.87;;;25.90;87.80;;;;;;5035791;28;20450;-67
2021/07/24 11:41:47;;;;;;;6.40;5.10;;;25.90;87.40;;;;;;5035994;28;20406;-67
2021/07/24 11:44:26;;;;;;;5.77;5.10;;;25.80;86.70;;;;;;5036086;28;20429;-67
2021/07/24 11:47:03;;;;;;;5.17;4.60;;;25.70;85.50;;;;;;5036085;28;20190;-67
2021/07/24 11:49:30;;;;;;;8.53;5.67;;;25.40;87.40;;;;;;5035713;28;20532;-67
2021/07/24 11:51:56;;;;;;;7.17;5.70;;;25.20;90.20;;;;;;5035608;28;20814;-67
2021/07/24 11:54:33;;;;;;;7.20;5.80;;;25.20;90.10;;;;;;5035681;28;20378;-67
2021/07/24 11:57:00;;;;;;;5.70;5.20;;;24.90;89.60;;;;;;5035669;28;20429;-67
2021/07/24 11:59:28;;;;;;;5.53;4.97;;;24.90;90.20;;;;;;5035540;28;20420;-66
2021/07/24 12:01:54;;;;;;;8.27;6.10;;;24.80;90.00;;;;;;5035692;28;20394;-67
2021/07/24 12:04:20;;;;;;;6.73;5.20;;;24.70;92.40;;;;;;5035675;28;20464;-67
2021/07/24 12:06:55;;;;;;;8.97;6.77;;;24.50;94.10;;;;;;5035290;28;20437;-68
2021/07/24 12:09:21;;;;;;;7.30;6.60;;;24.00;95.70;;;;;;5035452;28;20245;-67
2021/07/24 12:11:59;;;;;;;10.17;7.30;;;23.70;97.20;;;;;;5035651;28;20512;-67
2021/07/24 12:14:26;;;;;;;6.10;5.50;;;23.40;97.30;;;;;;5035556;28;20400;-67
2021/07/24 12:17:08;;;;;;;14.30;6.10;;;23.20;96.20;;;;;;5035429;28;20448;-67
2021/07/24 12:19:39;;;;;;;7.67;6.27;;;22.90;98.30;;;;;;5035038;28;20417;-67
2021/07/24 12:22:11;;;;;;;6.50;5.03;;;22.60;99.40;;;;;;5035530;28;20412;-67
2021/07/24 12:24:37;;;;;;;7.70;5.50;;;22.50;99.80;;;;;;5035313;28;20409;-67
2021/07/24 12:27:17;;;;;;;6.23;5.70;;;22.60;98.80;;;;;;5035011;28;20426;-68
2021/07/24 12:29:58;;;;;;;4.87;4.40;;;22.80;98.70;;;;;;5034854;28;20675;-67
2021/07/24 12:32:37;;;;;;;6.90;4.90;;;23.10;98.10;;;;;;5035129;28;20978;-67
2021/07/24 12:35:21;;;;;;;8.43;5.30;;;23.20;98.50;;;;;;5035230;28;20401;-67
2021/07/24 12:37:47;;;;;;;11.10;5.30;;;22.90;99.40;;;;;;5034738;28;20429;-67
2021/07/24 12:40:18;;;;;;;5.90;5.30;;;22.70;99.90;;;;;;5034805;28;20412;-67
2021/07/24 12:42:44;;;;;;;5.93;4.70;;;22.30;99.90;;;;;;5034987;28;20406;-67
2021/07/24 12:45:30;;;;;;;5.93;5.33;;;22.10;99.90;;;;;;5034874;28;20408;-67
2021/07/24 12:48:14;;;;;;;5.90;5.30;;;22.10;99.90;;;;;;5034813;28;20959;-67
2021/07/24 12:50:40;;;;;;;7.80;5.67;;;22.40;99.90;;;;;;5034550;28;20816;-67